createdAt,value
2019-03-06T00:00:19.740Z,77.18
2019-03-06T00:01:19.735Z,77.28
2019-03-06T00:02:19.722Z,77.28
2019-03-06T00:03:19.733Z,77.18
2019-03-06T00:04:19.694Z,76.76
2019-03-06T00:05:19.685Z,76.76
2019-03-06T00:06:19.674Z,76.87
2019-03-06T00:07:19.663Z,76.76
2019-03-06T00:08:19.672Z,77.04
2019-03-06T00:09:19.652Z,77.48
2019-03-06T00:10:19.631Z,76.87
2019-03-06T00:11:19.624Z,76.97
2019-03-06T00:12:19.621Z,76.87
2019-03-06T00:13:19.629Z,77.08
2019-03-06T00:14:19.593Z,77.48
2019-03-06T00:15:19.573Z,77.08
2019-03-06T00:16:19.571Z,77.48
2019-03-06T00:17:19.570Z,77.25
2019-03-06T00:18:19.575Z,77.35
2019-03-06T00:19:19.531Z,77.28
2019-03-06T00:20:19.526Z,77.08
2019-03-06T00:21:19.556Z,77.18
2019-03-06T00:22:19.521Z,77.18
2019-03-06T00:23:19.488Z,77.66
2019-03-06T00:24:19.518Z,77.66
2019-03-06T00:25:19.466Z,78.07
2019-03-06T00:26:19.489Z,77.76
2019-03-06T00:27:19.449Z,77.66
2019-03-06T00:28:19.432Z,77.86
2019-03-06T00:29:19.442Z,78.28
2019-03-06T00:30:19.415Z,78.07
2019-03-06T00:31:19.400Z,78.17
2019-03-06T00:32:19.459Z,78.69
2019-03-06T00:33:19.386Z,78.38
2019-03-06T00:34:19.394Z,78.48
2019-03-06T00:35:19.431Z,78.79
2019-03-06T00:36:19.635Z,78.79
2019-03-06T00:37:19.338Z,79.00
2019-03-06T00:38:19.325Z,78.79
2019-03-06T00:39:19.317Z,78.28
2019-03-06T00:40:19.325Z,79.41
2019-03-06T00:41:19.297Z,79.20
2019-03-06T00:42:19.316Z,79.72
2019-03-06T00:43:19.312Z,79.30
2019-03-06T00:44:19.260Z,79.20
2019-03-06T00:45:19.268Z,79.61
2019-03-06T00:46:19.244Z,79.41
2019-03-06T00:47:19.236Z,79.30
2019-03-06T00:48:19.225Z,79.00
2019-03-06T00:49:19.214Z,79.20
2019-03-06T00:50:19.253Z,79.58
2019-03-06T00:51:19.197Z,79.58
2019-03-06T00:52:26.727Z,79.82
2019-03-06T00:53:19.162Z,79.82
2019-03-06T00:54:19.160Z,79.93
2019-03-06T00:55:19.167Z,80.13
2019-03-06T00:56:19.133Z,79.72
2019-03-06T00:57:19.154Z,79.51
2019-03-06T00:58:19.112Z,80.33
2019-03-06T00:59:19.096Z,80.33
2019-03-06T01:00:19.105Z,80.54
2019-03-06T01:01:19.121Z,80.33
2019-03-06T01:02:19.063Z,80.85
2019-03-06T01:03:19.057Z,80.85
2019-03-06T01:04:19.049Z,80.85
2019-03-06T01:05:19.063Z,80.23
2019-03-06T01:06:19.029Z,80.71
2019-03-06T01:07:19.011Z,80.65
2019-03-06T01:08:19.003Z,80.61
2019-03-06T01:09:18.989Z,80.75
2019-03-06T01:10:19.021Z,80.75
2019-03-06T01:11:18.982Z,80.71
2019-03-06T01:12:26.551Z,80.51
2019-03-06T01:13:18.950Z,80.85
2019-03-06T01:14:18.934Z,80.65
2019-03-06T01:15:18.931Z,80.61
2019-03-06T01:16:18.954Z,81.33
2019-03-06T01:17:18.929Z,81.57
2019-03-06T01:18:18.891Z,81.33
2019-03-06T01:19:18.889Z,81.57
2019-03-06T01:20:19.507Z,81.37
2019-03-06T01:21:18.878Z,82.15
2019-03-06T01:22:18.855Z,81.77
2019-03-06T01:23:18.855Z,81.67
2019-03-06T01:24:18.829Z,81.88
2019-03-06T01:25:18.829Z,81.63
2019-03-06T01:26:18.824Z,81.53
2019-03-06T01:27:18.798Z,81.23
2019-03-06T01:28:18.816Z,81.98
2019-03-06T01:29:18.786Z,81.98
2019-03-06T01:30:18.763Z,81.88
2019-03-06T01:31:18.787Z,82.09
2019-03-06T01:32:18.749Z,82.19
2019-03-06T01:33:18.749Z,82.50
2019-03-06T01:34:18.726Z,82.29
2019-03-06T01:35:18.743Z,82.19
2019-03-06T01:36:18.699Z,82.19
2019-03-06T01:37:18.707Z,82.40
2019-03-06T01:38:18.703Z,82.29
2019-03-06T01:39:18.664Z,82.29
2019-03-06T01:40:18.684Z,83.26
2019-03-06T01:41:18.645Z,82.84
2019-03-06T01:42:18.654Z,82.33
2019-03-06T01:43:18.621Z,82.40
2019-03-06T01:44:18.617Z,82.40
2019-03-06T01:45:18.660Z,83.15
2019-03-06T01:46:18.603Z,82.84
2019-03-06T01:47:18.603Z,83.26
2019-03-06T01:48:18.568Z,83.12
2019-03-06T01:49:18.564Z,83.26
2019-03-06T01:50:18.573Z,82.95
2019-03-06T01:51:18.558Z,83.01
2019-03-06T01:52:18.548Z,83.32
2019-03-06T01:53:18.512Z,83.36
2019-03-06T01:54:18.507Z,83.67
2019-03-06T01:55:18.492Z,83.47
2019-03-06T01:56:18.487Z,83.67
2019-03-06T01:57:18.489Z,83.87
2019-03-06T01:58:18.493Z,83.77
2019-03-06T01:59:18.460Z,83.67
2019-03-06T02:00:18.447Z,84.08
2019-03-06T02:01:18.430Z,84.70
2019-03-06T02:02:18.440Z,83.98
2019-03-06T02:03:18.424Z,83.67
2019-03-06T02:04:18.411Z,83.98
2019-03-06T02:05:18.424Z,83.98
2019-03-06T02:06:18.374Z,83.87
2019-03-06T02:07:18.360Z,83.56
2019-03-06T02:08:18.375Z,84.59
2019-03-06T02:09:18.358Z,84.59
2019-03-06T02:10:18.382Z,84.59
2019-03-06T02:11:25.869Z,84.80
2019-03-06T02:12:18.326Z,84.49
2019-03-06T02:13:18.302Z,84.59
2019-03-06T02:14:18.315Z,84.59
2019-03-06T02:15:25.833Z,84.59
2019-03-06T02:16:18.270Z,84.19
2019-03-06T02:17:25.794Z,84.39
2019-03-06T02:18:18.243Z,84.08
2019-03-06T02:19:27.265Z,84.91
2019-03-06T02:20:26.173Z,84.29
2019-03-06T02:21:26.771Z,84.29
2019-03-06T02:22:25.753Z,84.39
2019-03-06T02:23:26.846Z,84.19
2019-03-06T02:24:26.765Z,84.70
2019-03-06T02:25:25.742Z,84.49
2019-03-06T02:26:25.702Z,84.29
2019-03-06T02:27:25.705Z,84.59
2019-03-06T02:28:27.938Z,84.91
2019-03-06T02:29:25.676Z,84.80
2019-03-06T02:30:25.665Z,84.39
2019-03-06T02:31:25.666Z,84.80
2019-03-06T02:32:25.692Z,84.59
2019-03-06T02:33:25.636Z,84.91
2019-03-06T02:34:27.073Z,84.91
2019-03-06T02:35:25.605Z,84.91
2019-03-06T02:36:26.947Z,84.49
2019-03-06T02:37:26.606Z,84.29
2019-03-06T02:38:25.594Z,85.11
2019-03-06T02:39:26.781Z,84.70
2019-03-06T02:40:26.585Z,84.59
2019-03-06T02:41:25.547Z,84.70
2019-03-06T02:42:26.544Z,85.63
2019-03-06T02:43:17.976Z,85.52
2019-03-06T02:44:17.987Z,85.52
2019-03-06T02:45:17.956Z,85.52
2019-03-06T02:46:17.948Z,85.42
2019-03-06T02:47:17.957Z,85.01
2019-03-06T02:48:17.925Z,85.31
2019-03-06T02:49:17.938Z,85.42
2019-03-06T02:50:17.910Z,85.31
2019-03-06T02:51:17.892Z,85.31
2019-03-06T02:52:17.881Z,85.22
2019-03-06T02:53:17.874Z,85.01
2019-03-06T02:54:17.881Z,85.42
2019-03-06T02:55:17.871Z,85.11
2019-03-06T02:56:17.848Z,85.73
2019-03-06T02:57:17.830Z,85.52
2019-03-06T02:58:17.828Z,85.31
2019-03-06T02:59:17.825Z,85.83
2019-03-06T03:00:17.797Z,85.63
2019-03-06T03:01:17.815Z,85.52
2019-03-06T03:02:17.783Z,85.52
2019-03-06T03:03:17.763Z,85.63
2019-03-06T03:04:17.771Z,85.42
2019-03-06T03:05:17.762Z,85.63
2019-03-06T03:06:17.768Z,85.52
2019-03-06T03:07:17.726Z,85.52
2019-03-06T03:08:17.708Z,85.59
2019-03-06T03:09:17.731Z,85.11
2019-03-06T03:10:17.710Z,85.52
2019-03-06T03:11:17.675Z,85.52
2019-03-06T03:12:17.673Z,85.38
2019-03-06T03:13:17.686Z,85.22
2019-03-06T03:14:17.689Z,85.63
2019-03-06T03:15:17.699Z,85.52
2019-03-06T03:16:17.630Z,85.38
2019-03-06T03:17:17.618Z,85.52
2019-03-06T03:18:17.609Z,85.52
2019-03-06T03:19:17.591Z,85.28
2019-03-06T03:20:17.626Z,85.59
2019-03-06T03:21:17.601Z,85.73
2019-03-06T03:22:25.117Z,85.31
2019-03-06T03:23:17.551Z,85.38
2019-03-06T03:24:17.532Z,85.52
2019-03-06T03:25:17.552Z,85.59
2019-03-06T03:26:17.515Z,85.38
2019-03-06T03:27:17.505Z,85.17
2019-03-06T03:28:19.744Z,85.38
2019-03-06T03:29:17.493Z,85.59
2019-03-06T03:30:17.502Z,85.59
2019-03-06T03:31:17.474Z,85.59
2019-03-06T03:32:17.476Z,85.17
2019-03-06T03:33:17.438Z,85.38
2019-03-06T03:34:17.430Z,85.07
2019-03-06T03:35:17.440Z,85.49
2019-03-06T03:36:17.413Z,85.28
2019-03-06T03:37:17.407Z,85.28
2019-03-06T03:38:17.391Z,84.97
2019-03-06T03:39:17.377Z,85.17
2019-03-06T03:40:17.391Z,85.28
2019-03-06T03:41:17.351Z,85.24
2019-03-06T03:42:17.352Z,85.34
2019-03-06T03:43:17.340Z,85.14
2019-03-06T03:44:17.318Z,85.14
2019-03-06T03:45:17.332Z,85.14
2019-03-06T03:46:17.332Z,85.44
2019-03-06T03:47:17.295Z,85.34
2019-03-06T03:48:17.285Z,85.34
2019-03-06T03:49:17.273Z,85.44
2019-03-06T03:50:17.340Z,85.14
2019-03-06T03:51:17.242Z,85.14
2019-03-06T03:52:17.251Z,85.34
2019-03-06T03:53:17.259Z,84.83
2019-03-06T03:54:17.224Z,85.17
2019-03-06T03:55:17.209Z,85.34
2019-03-06T03:56:17.215Z,85.34
2019-03-06T03:57:17.187Z,85.44
2019-03-06T03:58:17.174Z,85.55
2019-03-06T03:59:17.158Z,85.14
2019-03-06T04:00:17.169Z,85.14
2019-03-06T04:01:17.166Z,85.44
2019-03-06T04:02:17.145Z,84.52
2019-03-06T04:03:17.119Z,85.41
2019-03-06T04:04:17.112Z,84.58
2019-03-06T04:05:17.095Z,84.69
2019-03-06T04:06:17.100Z,84.48
2019-03-06T04:07:17.096Z,84.07
2019-03-06T04:08:17.066Z,84.42
2019-03-06T04:09:17.057Z,84.62
2019-03-06T04:10:17.040Z,84.79
2019-03-06T04:11:17.030Z,84.79
2019-03-06T04:12:17.084Z,84.79
2019-03-06T04:13:17.021Z,84.79
2019-03-06T04:14:17.005Z,84.07
2019-03-06T04:15:16.984Z,83.76
2019-03-06T04:16:16.971Z,83.97
2019-03-06T04:17:17.018Z,83.76
2019-03-06T04:18:16.951Z,84.17
2019-03-06T04:19:16.943Z,84.38
2019-03-06T04:20:16.948Z,84.27
2019-03-06T04:21:16.944Z,84.07
2019-03-06T04:22:16.942Z,84.17
2019-03-06T04:23:16.896Z,84.17
2019-03-06T04:24:16.898Z,83.97
2019-03-06T04:25:16.886Z,83.97
2019-03-06T04:26:16.882Z,84.79
2019-03-06T04:27:16.870Z,84.27
2019-03-06T04:28:16.851Z,84.17
2019-03-06T04:29:16.841Z,84.89
2019-03-06T04:30:16.842Z,84.79
2019-03-06T04:31:16.809Z,84.69
2019-03-06T04:32:16.835Z,84.83
2019-03-06T04:33:16.828Z,84.69
2019-03-06T04:34:16.775Z,84.79
2019-03-06T04:35:16.772Z,84.48
2019-03-06T04:36:16.761Z,84.69
2019-03-06T04:37:16.773Z,84.69
2019-03-06T04:38:16.754Z,84.69
2019-03-06T04:39:16.731Z,84.58
2019-03-06T04:40:16.725Z,84.79
2019-03-06T04:41:16.717Z,84.79
2019-03-06T04:42:16.692Z,84.27
2019-03-06T04:43:16.769Z,84.58
2019-03-06T04:44:16.675Z,84.79
2019-03-06T04:45:16.659Z,84.79
2019-03-06T04:46:16.648Z,84.79
2019-03-06T04:47:16.657Z,84.69
2019-03-06T04:48:16.656Z,84.69
2019-03-06T04:49:16.626Z,84.17
2019-03-06T04:50:16.616Z,84.79
2019-03-06T04:51:16.601Z,84.89
2019-03-06T04:52:16.620Z,84.58
2019-03-06T04:53:16.601Z,84.58
2019-03-06T04:54:16.566Z,84.69
2019-03-06T04:55:16.595Z,84.58
2019-03-06T04:56:16.540Z,84.69
2019-03-06T04:57:16.535Z,84.79
2019-03-06T04:58:16.551Z,84.83
2019-03-06T04:59:16.508Z,84.83
2019-03-06T05:00:16.533Z,84.83
2019-03-06T05:01:24.071Z,84.21
2019-03-06T05:02:16.477Z,84.93
2019-03-06T05:03:16.486Z,84.69
2019-03-06T05:04:16.463Z,84.83
2019-03-06T05:05:16.446Z,84.83
2019-03-06T05:06:16.435Z,85.03
2019-03-06T05:07:16.423Z,85.03
2019-03-06T05:08:16.431Z,84.31
2019-03-06T05:09:16.422Z,84.11
2019-03-06T05:10:16.389Z,83.86
2019-03-06T05:11:16.390Z,84.07
2019-03-06T05:12:16.371Z,84.11
2019-03-06T05:13:16.425Z,84.27
2019-03-06T05:14:16.406Z,83.90
2019-03-06T05:15:16.339Z,84.07
2019-03-06T05:16:16.330Z,84.11
2019-03-06T05:17:16.313Z,84.00
2019-03-06T05:18:16.319Z,84.11
2019-03-06T05:19:16.342Z,84.21
2019-03-06T05:20:16.333Z,84.52
2019-03-06T05:21:16.276Z,84.00
2019-03-06T05:22:16.262Z,84.11
2019-03-06T05:23:16.284Z,85.03
2019-03-06T05:24:16.260Z,84.83
2019-03-06T05:25:16.242Z,84.83
2019-03-06T05:27:36.334Z,84.52
2019-03-06T05:28:36.396Z,84.72
2019-03-06T05:29:36.293Z,84.11
2019-03-06T05:32:05.054Z,83.49
2019-03-06T05:33:05.045Z,83.80
2019-03-06T05:34:14.767Z,83.59
2019-03-06T05:35:05.010Z,83.49
2019-03-06T05:36:05.001Z,83.28
2019-03-06T05:37:05.002Z,83.59
2019-03-06T05:38:04.982Z,83.73
2019-03-06T05:39:04.990Z,83.90
2019-03-06T05:40:04.957Z,83.94
2019-03-06T05:41:04.955Z,83.90
2019-03-06T05:42:04.939Z,83.84
2019-03-06T05:43:04.936Z,83.84
2019-03-06T05:44:04.943Z,83.53
2019-03-06T05:45:04.904Z,83.90
2019-03-06T05:46:04.901Z,83.32
2019-03-06T05:47:04.934Z,83.32
2019-03-06T05:48:04.872Z,83.39
2019-03-06T05:49:04.860Z,83.39
2019-03-06T05:50:04.875Z,83.63
2019-03-06T05:51:04.844Z,83.63
2019-03-06T05:52:04.831Z,83.22
2019-03-06T05:53:04.829Z,83.53
2019-03-06T05:54:04.813Z,83.32
2019-03-06T05:55:04.815Z,83.63
2019-03-06T05:56:04.789Z,83.42
2019-03-06T05:57:04.781Z,83.42
2019-03-06T05:58:04.773Z,83.53
2019-03-06T05:59:04.752Z,83.32
2019-03-06T06:00:04.771Z,83.01
2019-03-06T06:01:04.744Z,83.32
2019-03-06T06:02:04.768Z,83.12
2019-03-06T06:03:04.713Z,83.12
2019-03-06T06:04:04.724Z,83.32
2019-03-06T06:05:04.734Z,83.32
2019-03-06T06:06:04.682Z,83.42
2019-03-06T06:07:04.670Z,83.32
2019-03-06T06:08:04.667Z,82.81
2019-03-06T06:09:04.646Z,83.42
2019-03-06T06:10:04.635Z,82.91
2019-03-06T06:11:04.645Z,82.91
2019-03-06T06:12:12.193Z,82.91
2019-03-06T06:13:04.607Z,83.01
2019-03-06T06:14:04.608Z,83.22
2019-03-06T06:15:04.582Z,82.70
2019-03-06T06:16:04.598Z,83.12
2019-03-06T06:17:04.591Z,83.01
2019-03-06T06:18:04.560Z,82.81
2019-03-06T06:19:04.541Z,83.01
2019-03-06T06:20:04.529Z,83.32
2019-03-06T06:21:04.537Z,82.50
2019-03-06T06:22:04.511Z,82.60
2019-03-06T06:23:04.528Z,82.70
2019-03-06T06:24:04.485Z,82.35
2019-03-06T06:25:04.489Z,82.40
2019-03-06T06:26:04.505Z,82.29
2019-03-06T06:27:04.515Z,82.29
2019-03-06T06:28:04.502Z,82.19
2019-03-06T06:29:04.438Z,82.40
2019-03-06T06:30:04.433Z,82.50
2019-03-06T06:31:04.439Z,82.35
2019-03-06T06:32:04.399Z,82.19
2019-03-06T06:33:04.387Z,82.05
2019-03-06T06:34:04.377Z,82.35
2019-03-06T06:35:04.367Z,82.35
2019-03-06T06:36:04.390Z,82.15
2019-03-06T06:37:04.385Z,82.35
2019-03-06T06:38:04.335Z,82.05
2019-03-06T06:39:04.328Z,82.60
2019-03-06T06:40:04.324Z,81.74
2019-03-06T06:41:04.353Z,81.74
2019-03-06T06:42:04.297Z,81.84
2019-03-06T06:43:04.280Z,81.95
2019-03-06T06:44:04.286Z,81.95
2019-03-06T06:45:04.304Z,81.84
2019-03-06T06:46:04.279Z,81.74
2019-03-06T06:47:04.237Z,81.43
2019-03-06T06:48:04.254Z,81.53
2019-03-06T06:49:04.221Z,81.53
2019-03-06T06:50:04.223Z,81.53
2019-03-06T06:51:04.219Z,81.53
2019-03-06T06:52:04.192Z,81.74
2019-03-06T06:53:04.203Z,81.53
2019-03-06T06:54:04.171Z,81.49
2019-03-06T06:55:04.156Z,81.95
2019-03-06T06:56:04.151Z,81.29
2019-03-06T06:57:04.159Z,81.23
2019-03-06T06:58:04.123Z,81.53
2019-03-06T06:59:04.120Z,81.81
2019-03-06T07:00:04.129Z,81.23
2019-03-06T07:01:04.099Z,81.23
2019-03-06T07:02:04.094Z,80.88
2019-03-06T07:03:04.067Z,80.51
2019-03-06T07:04:04.063Z,80.71
2019-03-06T07:05:04.105Z,80.77
2019-03-06T07:06:04.076Z,80.61
2019-03-06T07:07:04.089Z,80.77
2019-03-06T07:08:04.024Z,80.26
2019-03-06T07:09:04.196Z,80.36
2019-03-06T07:10:04.015Z,80.77
2019-03-06T07:11:03.997Z,80.16
2019-03-06T07:12:03.994Z,80.36
2019-03-06T07:13:04.022Z,79.85
2019-03-06T07:14:04.025Z,79.75
2019-03-06T07:15:03.937Z,79.95
2019-03-06T07:16:03.941Z,79.64
2019-03-06T07:17:03.979Z,79.64
2019-03-06T07:18:03.925Z,79.64
2019-03-06T07:19:03.900Z,79.13
2019-03-06T07:20:03.886Z,79.54
2019-03-06T07:21:03.875Z,79.13
2019-03-06T07:22:03.883Z,80.05
2019-03-06T07:23:03.907Z,79.95
2019-03-06T07:24:03.909Z,79.64
2019-03-06T07:25:03.834Z,79.44
2019-03-06T07:26:03.820Z,79.54
2019-03-06T07:27:03.832Z,79.54
2019-03-06T07:28:03.816Z,79.23
2019-03-06T07:29:03.793Z,79.13
2019-03-06T07:30:03.775Z,79.47
2019-03-06T07:31:03.783Z,79.33
2019-03-06T07:32:03.756Z,78.72
2019-03-06T07:33:03.765Z,79.40
2019-03-06T07:34:03.737Z,79.13
2019-03-06T07:35:03.774Z,79.13
2019-03-06T07:36:03.712Z,78.61
2019-03-06T07:37:03.785Z,79.75
2019-03-06T07:38:03.714Z,78.10
2019-03-06T07:39:03.686Z,78.92
2019-03-06T07:40:03.672Z,78.37
2019-03-06T07:41:03.661Z,79.09
2019-03-06T07:42:03.690Z,79.30
2019-03-06T07:43:03.635Z,77.96
2019-03-06T07:44:03.645Z,77.75
2019-03-06T07:45:03.612Z,77.55
2019-03-06T07:46:05.626Z,77.55
2019-03-06T07:47:03.593Z,77.75
2019-03-06T07:48:03.582Z,78.27
2019-03-06T07:49:03.603Z,79.05
2019-03-06T07:50:03.564Z,77.00
2019-03-06T07:51:03.555Z,76.69
2019-03-06T07:52:03.542Z,77.00
2019-03-06T07:53:03.553Z,76.21
2019-03-06T07:54:03.580Z,77.00
2019-03-06T07:55:03.509Z,76.48
2019-03-06T07:56:03.496Z,76.28
2019-03-06T07:57:03.499Z,75.73
2019-03-06T07:58:03.480Z,75.21
2019-03-06T07:59:03.467Z,75.63
2019-03-06T08:00:03.475Z,75.01
2019-03-06T08:01:03.444Z,75.42
2019-03-06T08:02:03.441Z,75.32
2019-03-06T08:03:03.425Z,74.19
2019-03-06T08:04:03.440Z,73.88
2019-03-06T08:05:03.450Z,73.68
2019-03-06T08:06:03.420Z,73.95
2019-03-06T08:07:03.415Z,73.54
2019-03-06T08:08:03.365Z,73.44
2019-03-06T08:09:03.357Z,72.92
2019-03-06T08:10:03.382Z,72.92
2019-03-06T08:11:03.344Z,72.51
2019-03-06T08:12:03.324Z,72.92
2019-03-06T08:13:03.320Z,72.92
2019-03-06T08:14:03.328Z,72.41
2019-03-06T08:15:03.311Z,72.17
2019-03-06T08:16:03.281Z,72.27
2019-03-06T08:17:03.275Z,72.10
2019-03-06T08:18:03.288Z,72.06
2019-03-06T08:19:03.248Z,72.17
2019-03-06T08:20:03.259Z,72.06
2019-03-06T08:21:03.234Z,71.45
2019-03-06T08:22:03.322Z,71.76
2019-03-06T08:23:03.208Z,71.45
2019-03-06T08:24:03.225Z,71.14
2019-03-06T08:25:03.225Z,70.84
2019-03-06T08:26:03.172Z,70.70
2019-03-06T08:27:03.163Z,70.90
2019-03-06T08:28:03.157Z,70.90
2019-03-06T08:29:03.149Z,70.80
2019-03-06T08:30:03.164Z,70.80
2019-03-06T08:31:03.138Z,70.60
2019-03-06T08:32:03.106Z,70.50
2019-03-06T08:33:03.102Z,70.29
2019-03-06T08:34:03.085Z,69.95
2019-03-06T08:35:03.078Z,70.60
2019-03-06T08:36:03.085Z,69.98
2019-03-06T08:37:03.070Z,70.26
2019-03-06T08:38:03.052Z,70.05
2019-03-06T08:39:03.045Z,69.74
2019-03-06T08:40:03.022Z,69.95
2019-03-06T08:41:04.947Z,70.05
2019-03-06T08:42:02.999Z,69.84
2019-03-06T08:43:02.985Z,69.54
2019-03-06T08:44:02.983Z,69.43
2019-03-06T08:45:02.965Z,69.33
2019-03-06T08:46:02.992Z,69.33
2019-03-06T08:47:02.945Z,69.10
2019-03-06T08:48:02.933Z,69.61
2019-03-06T08:49:02.947Z,68.59
2019-03-06T08:50:02.914Z,68.68
2019-03-06T08:51:02.915Z,67.97
2019-03-06T08:52:02.926Z,67.94
2019-03-06T08:53:02.879Z,67.83
2019-03-06T08:54:02.884Z,67.40
2019-03-06T08:55:02.859Z,67.52
2019-03-06T08:56:02.885Z,67.22
2019-03-06T08:57:02.845Z,67.43
2019-03-06T08:58:02.835Z,67.11
2019-03-06T08:59:02.852Z,66.27
2019-03-06T09:00:02.806Z,66.27
2019-03-06T09:01:02.796Z,66.67
2019-03-06T09:02:02.802Z,65.62
2019-03-06T09:03:02.802Z,65.62
2019-03-06T09:04:02.762Z,65.93
2019-03-06T09:05:02.759Z,65.83
2019-03-06T09:06:02.765Z,66.03
2019-03-06T09:07:02.755Z,65.01
2019-03-06T09:08:02.725Z,65.42
2019-03-06T09:09:02.710Z,65.42
2019-03-06T09:10:02.704Z,65.11
2019-03-06T09:11:03.368Z,64.70
2019-03-06T09:12:02.700Z,64.60
2019-03-06T09:13:02.676Z,65.42
2019-03-06T09:14:02.661Z,64.80
2019-03-06T09:15:02.651Z,64.39
2019-03-06T09:16:02.637Z,64.50
2019-03-06T09:17:02.648Z,63.85
2019-03-06T09:18:09.010Z,64.57
2019-03-06T09:19:03.652Z,64.09
2019-03-06T09:20:10.137Z,64.16
2019-03-06T09:21:02.582Z,63.54
2019-03-06T09:22:02.566Z,63.54
2019-03-06T09:23:02.591Z,63.65
2019-03-06T09:24:02.607Z,63.44
2019-03-06T09:25:02.537Z,63.85
2019-03-06T09:26:02.529Z,63.54
2019-03-06T09:27:02.534Z,63.03
2019-03-06T09:28:02.520Z,62.83
2019-03-06T09:29:02.505Z,63.26
2019-03-06T09:30:02.483Z,63.06
2019-03-06T09:31:02.469Z,63.24
2019-03-06T09:32:02.471Z,63.03
2019-03-06T09:33:02.482Z,63.13
2019-03-06T09:34:02.441Z,63.44
2019-03-06T09:35:02.449Z,63.13
2019-03-06T09:36:02.419Z,63.85
2019-03-06T09:37:02.406Z,63.34
2019-03-06T09:38:10.790Z,63.13
2019-03-06T09:39:03.389Z,63.26
2019-03-06T09:40:02.380Z,63.34
2019-03-06T09:41:02.362Z,63.85
2019-03-06T09:42:02.348Z,63.54
2019-03-06T09:43:02.358Z,63.54
2019-03-06T09:44:02.350Z,63.03
2019-03-06T09:45:02.329Z,63.00
2019-03-06T09:46:02.379Z,62.80
2019-03-06T09:47:02.321Z,62.29
2019-03-06T09:48:02.303Z,62.90
2019-03-06T09:49:10.923Z,62.80
2019-03-06T09:50:03.264Z,62.70
2019-03-06T09:51:02.253Z,62.39
2019-03-06T09:52:02.253Z,62.39
2019-03-06T09:53:02.270Z,61.67
2019-03-06T09:54:02.216Z,62.08
2019-03-06T09:55:02.287Z,61.77
2019-03-06T09:56:02.264Z,61.88
2019-03-06T09:57:02.202Z,61.24
2019-03-06T09:58:02.178Z,61.47
2019-03-06T09:59:02.186Z,61.24
2019-03-06T10:00:02.162Z,61.26
2019-03-06T10:01:02.141Z,61.54
2019-03-06T10:02:06.662Z,61.24
2019-03-06T10:03:03.120Z,61.06
2019-03-06T10:04:02.131Z,61.13
2019-03-06T10:05:02.101Z,61.16
2019-03-06T10:06:02.117Z,61.24
2019-03-06T10:07:02.085Z,61.06
2019-03-06T10:08:02.070Z,61.16
2019-03-06T10:09:02.083Z,61.65
2019-03-06T10:10:02.047Z,61.65
2019-03-06T10:11:02.048Z,61.26
2019-03-06T10:12:02.030Z,61.06
2019-03-06T10:13:03.450Z,61.95
2019-03-06T10:14:02.027Z,61.34
2019-03-06T10:15:01.995Z,60.31
2019-03-06T10:16:01.984Z,61.44
2019-03-06T10:17:01.978Z,61.75
2019-03-06T10:18:01.962Z,61.34
2019-03-06T10:19:01.969Z,61.85
2019-03-06T10:20:01.939Z,61.26
2019-03-06T10:21:02.025Z,60.65
2019-03-06T10:22:01.915Z,61.16
2019-03-06T10:23:01.904Z,61.03
2019-03-06T10:24:01.917Z,61.54
2019-03-06T10:25:01.886Z,61.26
2019-03-06T10:26:01.876Z,61.77
2019-03-06T10:27:01.875Z,61.03
2019-03-06T10:28:06.356Z,60.65
2019-03-06T10:29:02.870Z,60.93
2019-03-06T10:30:01.830Z,60.31
2019-03-06T10:31:02.638Z,60.62
2019-03-06T10:32:01.818Z,60.72
2019-03-06T10:33:01.872Z,60.49
2019-03-06T10:34:01.787Z,60.60
2019-03-06T10:35:01.804Z,60.49
2019-03-06T10:36:01.781Z,60.08
2019-03-06T10:37:01.799Z,60.19
2019-03-06T10:38:01.745Z,59.98
2019-03-06T10:39:01.739Z,59.78
2019-03-06T10:40:01.764Z,59.37
2019-03-06T10:41:01.710Z,59.06
2019-03-06T10:42:01.730Z,60.05
2019-03-06T10:43:01.747Z,59.03
2019-03-06T10:44:01.686Z,60.16
2019-03-06T10:45:01.698Z,59.85
2019-03-06T10:46:01.701Z,59.44
2019-03-06T10:47:01.655Z,59.55
2019-03-06T10:48:01.643Z,59.95
2019-03-06T10:49:01.703Z,59.34
2019-03-06T10:50:01.642Z,59.34
2019-03-06T10:51:01.606Z,58.93
2019-03-06T10:52:01.601Z,59.34
2019-03-06T10:53:01.592Z,59.14
2019-03-06T10:54:01.577Z,58.32
2019-03-06T10:55:01.573Z,58.73
2019-03-06T10:56:01.602Z,58.93
2019-03-06T10:57:01.539Z,59.34
2019-03-06T10:58:01.563Z,59.85
2019-03-06T10:59:01.524Z,59.85
2019-03-06T11:00:01.511Z,59.92
2019-03-06T11:01:01.556Z,60.13
2019-03-06T11:02:01.487Z,59.75
2019-03-06T11:03:01.479Z,59.95
2019-03-06T11:04:01.464Z,60.05
2019-03-06T11:05:01.454Z,59.03
2019-03-06T11:06:01.466Z,58.32
2019-03-06T11:07:01.435Z,59.03
2019-03-06T11:08:01.430Z,58.22
2019-03-06T11:09:01.416Z,58.52
2019-03-06T11:10:01.646Z,58.22
2019-03-06T11:11:01.415Z,58.62
2019-03-06T11:12:01.391Z,58.83
2019-03-06T11:13:01.368Z,59.14
2019-03-06T11:14:06.238Z,58.42
2019-03-06T11:15:02.462Z,58.42
2019-03-06T11:16:01.391Z,58.52
2019-03-06T11:17:01.334Z,58.73
2019-03-06T11:18:01.313Z,58.52
2019-03-06T11:19:01.310Z,57.70
2019-03-06T11:20:01.293Z,57.88
2019-03-06T11:21:01.303Z,58.22
2019-03-06T11:22:01.284Z,57.70
2019-03-06T11:23:01.267Z,57.98
2019-03-06T11:24:01.255Z,57.78
2019-03-06T11:25:01.261Z,57.98
2019-03-06T11:26:01.967Z,57.98
2019-03-06T11:27:01.222Z,56.56
2019-03-06T11:28:01.216Z,57.65
2019-03-06T11:29:01.203Z,56.53
2019-03-06T11:30:01.216Z,56.53
2019-03-06T11:31:01.194Z,57.55
2019-03-06T11:32:01.171Z,56.63
2019-03-06T11:33:01.158Z,56.84
2019-03-06T11:34:01.150Z,56.84
2019-03-06T11:35:01.144Z,57.04
2019-03-06T11:36:01.145Z,56.23
2019-03-06T11:37:01.118Z,56.73
2019-03-06T11:38:01.098Z,56.73
2019-03-06T11:39:01.089Z,56.63
2019-03-06T11:40:01.115Z,56.53
2019-03-06T11:41:01.090Z,56.60
2019-03-06T11:42:01.054Z,56.60
2019-03-06T11:43:01.047Z,57.04
2019-03-06T11:44:01.047Z,56.60
2019-03-06T11:45:01.031Z,56.60
2019-03-06T11:46:01.038Z,56.40
2019-03-06T11:47:01.394Z,56.81
2019-03-06T11:48:00.992Z,56.71
2019-03-06T11:49:00.987Z,56.91
2019-03-06T11:50:00.971Z,56.50
2019-03-06T11:51:00.984Z,56.40
2019-03-06T11:52:00.963Z,56.30
2019-03-06T11:53:00.954Z,56.50
2019-03-06T11:54:00.929Z,56.40
2019-03-06T11:55:06.182Z,56.40
2019-03-06T11:56:01.942Z,56.10
2019-03-06T11:57:00.893Z,56.20
2019-03-06T11:58:00.913Z,56.71
2019-03-06T11:59:00.892Z,56.40
2019-03-06T12:00:00.866Z,56.37
2019-03-06T12:01:00.874Z,56.27
2019-03-06T12:02:00.855Z,56.48
2019-03-06T12:03:00.928Z,56.58
2019-03-06T12:04:00.821Z,56.58
2019-03-06T12:05:00.879Z,57.26
2019-03-06T12:06:00.816Z,55.46
2019-03-06T12:07:00.821Z,56.35
2019-03-06T12:08:00.784Z,55.66
2019-03-06T12:09:00.767Z,56.48
2019-03-06T12:10:00.757Z,55.53
2019-03-06T12:11:00.787Z,55.33
2019-03-06T12:12:00.736Z,55.84
2019-03-06T12:13:00.723Z,55.43
2019-03-06T12:14:00.732Z,55.53
2019-03-06T12:15:00.706Z,55.43
2019-03-06T12:16:00.717Z,55.43
2019-03-06T12:17:00.738Z,55.22
2019-03-06T12:18:00.679Z,55.00
2019-03-06T12:19:00.656Z,55.22
2019-03-06T12:20:07.837Z,55.22
2019-03-06T12:21:01.653Z,55.02
2019-03-06T12:22:00.626Z,55.02
2019-03-06T12:23:08.152Z,55.02
2019-03-06T12:24:00.600Z,55.43
2019-03-06T12:25:00.594Z,56.24
2019-03-06T12:26:00.585Z,55.94
2019-03-06T12:27:00.586Z,56.02
2019-03-06T12:28:00.586Z,56.55
2019-03-06T12:29:00.548Z,56.96
2019-03-06T12:30:00.535Z,56.04
2019-03-06T12:31:00.549Z,55.53
2019-03-06T12:32:00.532Z,56.12
2019-03-06T12:33:00.501Z,56.12
2019-03-06T12:34:00.503Z,56.02
2019-03-06T12:35:00.490Z,56.73
2019-03-06T12:36:00.470Z,55.61
2019-03-06T12:37:00.477Z,54.90
2019-03-06T12:38:00.456Z,55.10
2019-03-06T12:39:00.455Z,55.10
2019-03-06T12:40:00.429Z,55.91
2019-03-06T12:41:00.430Z,56.02
2019-03-06T12:42:00.426Z,55.41
2019-03-06T12:43:00.398Z,55.61
2019-03-06T12:44:00.388Z,56.22
2019-03-06T12:45:00.435Z,55.81
2019-03-06T12:46:00.360Z,55.41
2019-03-06T12:47:00.403Z,55.91
2019-03-06T12:48:00.342Z,56.22
2019-03-06T12:49:00.335Z,55.51
2019-03-06T12:50:05.798Z,56.12
2019-03-06T12:51:01.315Z,55.51
2019-03-06T12:52:00.309Z,56.32
2019-03-06T12:53:00.305Z,56.52
2019-03-06T12:54:00.275Z,56.42
2019-03-06T12:55:00.303Z,56.52